createdAt,value
2022-12-29T00:00:42.668Z,6.40
2022-12-29T00:01:45.091Z,6.40
2022-12-29T00:02:51.727Z,6.40
2022-12-29T00:03:54.534Z,6.50
2022-12-29T00:05:00.680Z,6.40
2022-12-29T00:06:03.844Z,6.40
2022-12-29T00:07:08.251Z,6.40
2022-12-29T00:08:12.892Z,6.40
2022-12-29T00:09:18.175Z,6.40
2022-12-29T00:10:22.174Z,6.50
2022-12-29T00:11:28.082Z,6.50
2022-12-29T00:12:51.982Z,6.50
2022-12-29T00:14:14.039Z,6.50
2022-12-29T00:15:35.273Z,6.50
2022-12-29T00:16:39.817Z,6.60
2022-12-29T00:17:43.658Z,6.60
2022-12-29T00:18:46.109Z,6.60
2022-12-29T00:20:07.164Z,6.60
2022-12-29T00:21:33.040Z,6.60
2022-12-29T00:22:54.017Z,6.60
2022-12-29T00:24:16.737Z,6.50
2022-12-29T00:25:38.184Z,6.60
2022-12-29T00:26:59.352Z,6.50
2022-12-29T00:28:20.405Z,6.60
2022-12-29T00:29:41.136Z,6.60
2022-12-29T00:31:03.221Z,6.70
2022-12-29T00:32:29.177Z,6.70
2022-12-29T00:33:48.303Z,6.70
2022-12-29T00:35:05.664Z,6.70
2022-12-29T00:36:14.922Z,6.70
2022-12-29T00:37:18.240Z,6.70
2022-12-29T00:38:41.854Z,6.70
2022-12-29T00:40:04.164Z,6.70
2022-12-29T00:41:26.852Z,6.80
2022-12-29T00:42:48.137Z,6.70
2022-12-29T00:44:07.174Z,6.80
2022-12-29T00:45:10.120Z,6.80
2022-12-29T00:46:19.636Z,6.80
2022-12-29T00:47:24.238Z,6.90
2022-12-29T00:48:45.517Z,6.80
2022-12-29T00:49:50.089Z,6.80
2022-12-29T00:50:57.335Z,6.80
2022-12-29T00:52:05.210Z,6.70
2022-12-29T00:53:08.170Z,6.80
2022-12-29T00:54:11.959Z,6.80
2022-12-29T00:55:17.351Z,6.90
2022-12-29T00:56:21.435Z,6.90
2022-12-29T00:57:25.325Z,6.80
2022-12-29T00:58:29.306Z,6.90
2022-12-29T00:59:33.235Z,6.90
2022-12-29T01:00:37.026Z,6.90
2022-12-29T01:01:42.089Z,7.00
2022-12-29T01:02:46.111Z,6.90
2022-12-29T01:03:48.840Z,6.90
2022-12-29T01:04:52.334Z,7.00
2022-12-29T01:05:54.880Z,7.00
2022-12-29T01:07:01.258Z,7.00
2022-12-29T01:08:04.132Z,7.00
2022-12-29T01:09:26.148Z,7.00
2022-12-29T01:10:31.299Z,7.00
2022-12-29T01:11:35.091Z,7.00
2022-12-29T01:12:46.116Z,7.00
2022-12-29T01:13:49.644Z,7.00
2022-12-29T01:14:53.526Z,7.00
2022-12-29T01:15:56.886Z,7.00
2022-12-29T01:17:00.529Z,7.00
2022-12-29T01:18:03.074Z,7.00
2022-12-29T01:19:08.700Z,7.00
2022-12-29T01:20:13.637Z,7.00
2022-12-29T01:21:16.707Z,7.00
2022-12-29T01:22:22.448Z,7.00
2022-12-29T01:23:25.219Z,7.00
2022-12-29T01:24:29.187Z,7.00
2022-12-29T01:25:32.995Z,6.90
2022-12-29T01:26:37.527Z,6.90
2022-12-29T01:27:43.335Z,6.80
2022-12-29T01:28:46.063Z,6.80
2022-12-29T01:29:49.952Z,6.80
2022-12-29T01:30:52.505Z,6.80
2022-12-29T01:31:56.389Z,6.70
2022-12-29T01:32:59.173Z,6.70
2022-12-29T01:34:03.274Z,6.60
2022-12-29T01:35:06.564Z,6.60
2022-12-29T01:36:14.999Z,6.60
2022-12-29T01:37:17.713Z,6.50
2022-12-29T01:38:21.813Z,6.50
2022-12-29T01:39:24.358Z,6.50
2022-12-29T01:40:28.014Z,6.50
2022-12-29T01:41:32.543Z,6.60
2022-12-29T01:42:36.204Z,6.60
2022-12-29T01:43:44.324Z,6.60
2022-12-29T01:44:54.014Z,6.60
2022-12-29T01:45:57.547Z,6.50
2022-12-29T01:47:01.527Z,6.50
2022-12-29T01:48:11.536Z,6.60
2022-12-29T01:49:20.893Z,6.60
2022-12-29T01:50:31.248Z,6.70
2022-12-29T01:51:40.143Z,6.70
2022-12-29T01:52:50.762Z,6.70
2022-12-29T01:53:57.053Z,6.60
2022-12-29T01:55:04.085Z,6.60
2022-12-29T01:56:13.894Z,6.60
2022-12-29T01:57:25.391Z,6.60
2022-12-29T01:58:32.943Z,6.60
2022-12-29T01:59:42.268Z,6.60
2022-12-29T02:00:48.145Z,6.60
2022-12-29T02:01:52.416Z,6.60
2022-12-29T02:02:57.377Z,6.60
2022-12-29T02:04:00.396Z,6.60
2022-12-29T02:05:11.568Z,6.50
2022-12-29T02:06:22.727Z,6.50
2022-12-29T02:07:30.003Z,6.50
2022-12-29T02:08:35.068Z,6.40
2022-12-29T02:09:41.327Z,6.40
2022-12-29T02:10:47.091Z,6.30
2022-12-29T02:11:50.584Z,6.40
2022-12-29T02:12:56.677Z,6.40
2022-12-29T02:14:03.735Z,6.40
2022-12-29T02:15:08.075Z,6.30
2022-12-29T02:16:42.940Z,6.40
2022-12-29T02:18:06.153Z,6.40
2022-12-29T02:19:42.830Z,6.40
2022-12-29T02:21:48.381Z,6.40
2022-12-29T02:23:14.186Z,6.60
2022-12-29T02:25:02.958Z,6.60
2022-12-29T02:26:32.146Z,6.60
2022-12-29T02:27:52.686Z,6.60
2022-12-29T02:29:27.122Z,6.60
2022-12-29T02:30:39.937Z,6.60
2022-12-29T02:31:52.281Z,6.60
2022-12-29T02:33:07.065Z,6.50
2022-12-29T02:34:25.210Z,6.50
2022-12-29T02:35:44.305Z,6.60
2022-12-29T02:37:02.605Z,6.60
2022-12-29T02:38:17.489Z,6.60
2022-12-29T02:39:33.022Z,6.60
2022-12-29T02:40:44.580Z,6.60
2022-12-29T02:41:58.996Z,6.60
2022-12-29T02:43:13.283Z,6.60
2022-12-29T02:44:28.210Z,6.60
2022-12-29T02:45:43.230Z,6.50
2022-12-29T02:46:55.111Z,6.60
2022-12-29T02:48:08.269Z,6.50
2022-12-29T02:49:22.302Z,6.50
2022-12-29T02:50:32.943Z,6.40
2022-12-29T02:51:49.679Z,6.40
2022-12-29T02:52:59.916Z,6.40
2022-12-29T02:54:21.968Z,6.40
2022-12-29T02:55:26.379Z,6.40
2022-12-29T02:56:29.271Z,6.40
2022-12-29T02:57:36.599Z,6.40
2022-12-29T02:58:39.598Z,6.40
2022-12-29T02:59:50.806Z,6.40
2022-12-29T03:01:19.984Z,6.30
2022-12-29T03:03:04.247Z,6.30
2022-12-29T03:04:33.153Z,6.30
2022-12-29T03:06:02.200Z,6.20
2022-12-29T03:07:19.443Z,6.20
2022-12-29T03:08:32.499Z,6.20
2022-12-29T03:09:52.019Z,6.20
2022-12-29T03:11:02.357Z,6.20
2022-12-29T03:12:18.334Z,6.20
2022-12-29T03:13:48.374Z,6.20
2022-12-29T03:15:19.938Z,6.10
2022-12-29T03:16:37.115Z,6.20
2022-12-29T03:17:51.144Z,6.20
2022-12-29T03:19:01.788Z,6.20
2022-12-29T03:20:12.035Z,6.30
2022-12-29T03:21:45.624Z,6.20
2022-12-29T03:22:56.347Z,6.20
2022-12-29T03:24:00.487Z,6.10
2022-12-29T03:25:11.662Z,6.00
2022-12-29T03:26:20.619Z,6.00
2022-12-29T03:27:31.944Z,5.90
2022-12-29T03:28:41.679Z,5.80
2022-12-29T03:29:54.665Z,5.80
2022-12-29T03:31:35.372Z,5.90
2022-12-29T03:32:44.364Z,5.80
2022-12-29T03:33:51.066Z,5.70
2022-12-29T03:34:56.995Z,5.70
2022-12-29T03:36:05.263Z,5.60
2022-12-29T03:37:15.857Z,5.60
2022-12-29T03:38:26.273Z,5.50
2022-12-29T03:39:29.791Z,5.50
2022-12-29T03:40:39.133Z,5.50
2022-12-29T03:41:48.238Z,5.50
2022-12-29T03:42:57.406Z,5.40
2022-12-29T03:44:01.103Z,5.50
2022-12-29T03:45:08.815Z,5.50
2022-12-29T03:46:13.017Z,5.50
2022-12-29T03:47:20.684Z,5.60
2022-12-29T03:48:23.310Z,5.50
2022-12-29T03:49:28.181Z,5.40
2022-12-29T03:50:31.400Z,5.40
2022-12-29T03:51:35.764Z,5.50
2022-12-29T03:52:41.299Z,5.50
2022-12-29T03:53:45.100Z,5.50
2022-12-29T03:54:48.811Z,5.70
2022-12-29T03:55:53.359Z,5.50
2022-12-29T03:56:59.559Z,5.60
2022-12-29T03:58:35.597Z,5.60
2022-12-29T03:59:55.803Z,5.50
2022-12-29T04:01:01.586Z,5.60
2022-12-29T04:02:06.614Z,5.50
2022-12-29T04:03:11.985Z,5.50
2022-12-29T04:04:15.018Z,5.40
2022-12-29T04:05:20.525Z,5.30
2022-12-29T04:06:24.956Z,5.20
2022-12-29T04:07:37.307Z,5.20
2022-12-29T04:08:40.545Z,5.30
2022-12-29T04:09:44.390Z,5.20
2022-12-29T04:10:55.232Z,5.30
2022-12-29T04:12:00.575Z,5.30
2022-12-29T04:13:05.047Z,5.20
2022-12-29T04:14:07.541Z,5.20
2022-12-29T04:15:21.099Z,5.10
2022-12-29T04:16:25.163Z,5.20
2022-12-29T04:17:31.619Z,5.20
2022-12-29T04:18:35.783Z,5.20
2022-12-29T04:19:39.569Z,5.10
2022-12-29T04:21:01.065Z,5.10
2022-12-29T04:22:05.227Z,5.00
2022-12-29T04:23:12.318Z,5.10
2022-12-29T04:24:15.258Z,5.00
2022-12-29T04:25:20.591Z,5.00
2022-12-29T04:26:23.294Z,5.00
2022-12-29T04:27:40.302Z,5.10
2022-12-29T04:28:58.328Z,5.00
2022-12-29T04:30:17.190Z,4.90
2022-12-29T04:31:48.110Z,5.00
2022-12-29T04:32:51.313Z,4.90
2022-12-29T04:33:58.421Z,4.90
2022-12-29T04:35:01.334Z,5.00
2022-12-29T04:36:06.304Z,4.90
2022-12-29T04:37:10.439Z,5.00
2022-12-29T04:38:17.219Z,4.70
2022-12-29T04:39:20.055Z,4.90
2022-12-29T04:40:24.336Z,4.80
2022-12-29T04:41:28.231Z,4.80
2022-12-29T04:42:32.460Z,4.80
2022-12-29T04:43:37.293Z,4.80
2022-12-29T04:44:56.189Z,4.80
2022-12-29T04:46:20.339Z,4.80
2022-12-29T04:47:28.185Z,4.90
2022-12-29T04:48:46.659Z,4.90
2022-12-29T04:50:14.405Z,4.90
2022-12-29T04:51:20.424Z,4.90
2022-12-29T04:52:24.722Z,5.00
2022-12-29T04:53:28.931Z,4.90
2022-12-29T04:54:34.486Z,4.90
2022-12-29T04:55:52.164Z,4.90
2022-12-29T04:56:56.181Z,4.90
2022-12-29T04:58:00.145Z,4.90
2022-12-29T04:59:06.541Z,4.90
2022-12-29T05:00:12.100Z,4.80
2022-12-29T05:01:15.937Z,4.80
2022-12-29T05:02:20.354Z,4.70
2022-12-29T05:03:26.668Z,4.70
2022-12-29T05:04:33.388Z,4.70
2022-12-29T05:05:39.344Z,4.70
2022-12-29T05:06:42.670Z,4.70
2022-12-29T05:07:47.061Z,4.60
2022-12-29T05:08:51.978Z,4.60
2022-12-29T05:09:55.637Z,4.70
2022-12-29T05:10:58.775Z,4.70
2022-12-29T05:12:04.138Z,4.70
2022-12-29T05:13:08.502Z,4.80
2022-12-29T05:14:12.383Z,4.80
2022-12-29T05:15:15.171Z,4.80
2022-12-29T05:16:20.861Z,4.80
2022-12-29T05:17:24.115Z,4.90
2022-12-29T05:18:27.677Z,4.80
2022-12-29T05:19:34.783Z,4.80
2022-12-29T05:20:42.669Z,4.80
2022-12-29T05:21:45.513Z,4.80
2022-12-29T05:22:49.218Z,4.80
2022-12-29T05:23:54.087Z,4.80
2022-12-29T05:24:58.662Z,4.80
2022-12-29T05:26:04.216Z,4.80
2022-12-29T05:27:37.404Z,4.70
2022-12-29T05:28:56.532Z,4.70
2022-12-29T05:30:04.538Z,4.80
2022-12-29T05:31:08.678Z,4.70
2022-12-29T05:32:12.215Z,4.70
2022-12-29T05:33:16.216Z,4.80
2022-12-29T05:34:21.316Z,4.80
2022-12-29T05:35:25.199Z,4.80
2022-12-29T05:36:34.435Z,4.80
2022-12-29T05:37:41.399Z,4.90
2022-12-29T05:38:43.992Z,4.80
2022-12-29T05:39:48.343Z,4.80
2022-12-29T05:40:50.985Z,4.80
2022-12-29T05:42:13.645Z,4.80
2022-12-29T05:43:28.020Z,4.80
2022-12-29T05:45:11.244Z,4.80
2022-12-29T05:46:33.950Z,4.70
2022-12-29T05:48:03.941Z,4.70
2022-12-29T05:49:17.691Z,4.80
2022-12-29T05:50:49.515Z,4.70
2022-12-29T05:51:55.899Z,4.70
2022-12-29T05:53:02.547Z,4.70
2022-12-29T05:54:06.707Z,4.60
2022-12-29T05:55:10.787Z,4.70
2022-12-29T05:56:21.868Z,4.70
2022-12-29T05:57:30.847Z,4.70
2022-12-29T05:58:42.484Z,4.80
2022-12-29T05:59:45.141Z,4.80
2022-12-29T06:00:49.388Z,4.80
2022-12-29T06:01:52.034Z,4.70
2022-12-29T06:02:56.086Z,4.80
2022-12-29T06:03:58.856Z,4.80
2022-12-29T06:05:05.687Z,4.80
2022-12-29T06:06:10.625Z,4.80
2022-12-29T06:07:15.785Z,4.80
2022-12-29T06:08:21.582Z,4.80
2022-12-29T06:09:25.787Z,4.80
2022-12-29T06:10:30.020Z,4.80
2022-12-29T06:11:42.565Z,4.80
2022-12-29T06:12:48.057Z,4.80
2022-12-29T06:13:52.250Z,4.80
2022-12-29T06:14:55.208Z,4.80
2022-12-29T06:15:59.830Z,4.80
2022-12-29T06:17:07.787Z,4.80
2022-12-29T06:18:16.483Z,4.80
2022-12-29T06:19:24.019Z,4.90
2022-12-29T06:20:26.772Z,4.90
2022-12-29T06:21:36.983Z,4.90
2022-12-29T06:22:41.364Z,4.90
2022-12-29T06:23:45.393Z,4.90
2022-12-29T06:24:51.210Z,5.00
2022-12-29T06:25:55.025Z,5.00
2022-12-29T06:26:58.314Z,4.90
2022-12-29T06:28:02.448Z,4.90
2022-12-29T06:29:05.214Z,4.90
2022-12-29T06:30:11.422Z,4.90
2022-12-29T06:31:15.680Z,4.90
2022-12-29T06:32:19.777Z,4.90
2022-12-29T06:33:28.380Z,4.90
2022-12-29T06:34:33.347Z,5.00
2022-12-29T06:35:37.373Z,5.00
2022-12-29T06:36:39.952Z,5.00
2022-12-29T06:37:45.478Z,5.00
2022-12-29T06:38:49.481Z,5.00
2022-12-29T06:39:51.943Z,5.20
2022-12-29T06:40:57.645Z,5.10
2022-12-29T06:42:19.198Z,5.10
2022-12-29T06:43:45.567Z,5.10
2022-12-29T06:44:59.563Z,5.10
2022-12-29T06:46:03.356Z,5.10
2022-12-29T06:47:05.943Z,5.20
2022-12-29T06:48:13.420Z,5.10
2022-12-29T06:49:16.868Z,5.20
2022-12-29T06:50:20.886Z,5.20
2022-12-29T06:51:23.703Z,5.20
2022-12-29T06:52:27.462Z,5.20
2022-12-29T06:53:31.441Z,5.20
2022-12-29T06:54:35.972Z,5.30
2022-12-29T06:55:39.056Z,5.30
2022-12-29T06:56:42.744Z,5.30
2022-12-29T06:57:47.199Z,5.30
2022-12-29T06:58:53.099Z,5.30
2022-12-29T06:59:56.849Z,5.30
2022-12-29T07:01:01.003Z,5.30
2022-12-29T07:02:03.888Z,5.30
2022-12-29T07:03:10.872Z,5.30
2022-12-29T07:04:13.571Z,5.30
2022-12-29T07:05:18.783Z,5.40
2022-12-29T07:06:22.544Z,5.30
2022-12-29T07:07:26.553Z,5.30
2022-12-29T07:08:33.706Z,5.30
2022-12-29T07:09:37.349Z,5.30
2022-12-29T07:10:40.017Z,5.40
2022-12-29T07:11:47.076Z,5.40
2022-12-29T07:12:49.802Z,5.40
2022-12-29T07:13:53.981Z,5.30
2022-12-29T07:14:56.461Z,5.30
2022-12-29T07:16:00.415Z,5.30
2022-12-29T07:17:03.784Z,5.30
2022-12-29T07:18:08.113Z,5.40
2022-12-29T07:19:10.758Z,5.30
2022-12-29T07:20:14.406Z,5.40
2022-12-29T07:21:19.895Z,5.40
2022-12-29T07:22:26.157Z,5.50
2022-12-29T07:23:30.452Z,5.50
2022-12-29T07:24:33.953Z,5.50
2022-12-29T07:25:39.063Z,5.50
2022-12-29T07:26:44.668Z,5.50
2022-12-29T07:27:47.160Z,5.60
2022-12-29T07:28:52.514Z,5.60
2022-12-29T07:29:55.136Z,5.60
2022-12-29T07:30:58.579Z,5.50
2022-12-29T07:32:01.338Z,5.40
2022-12-29T07:33:05.228Z,5.50
2022-12-29T07:34:10.909Z,5.50
2022-12-29T07:35:13.400Z,5.60
2022-12-29T07:36:18.431Z,5.60
2022-12-29T07:37:22.249Z,5.60
2022-12-29T07:38:24.928Z,5.60
2022-12-29T07:39:34.527Z,5.70
2022-12-29T07:40:36.949Z,5.60
2022-12-29T07:41:40.494Z,5.70
2022-12-29T07:42:48.488Z,5.60
2022-12-29T07:43:52.615Z,5.70
2022-12-29T07:45:35.311Z,5.70
2022-12-29T07:46:54.605Z,5.80
2022-12-29T07:48:00.964Z,5.80
2022-12-29T07:49:08.401Z,5.70
2022-12-29T07:50:15.548Z,5.80
2022-12-29T07:51:18.276Z,5.80
2022-12-29T07:52:21.973Z,5.80
2022-12-29T07:53:24.679Z,5.80
2022-12-29T07:54:28.539Z,5.90
2022-12-29T07:55:32.539Z,5.80
2022-12-29T07:56:39.688Z,5.80
2022-12-29T07:57:43.449Z,5.90
2022-12-29T07:58:46.340Z,5.80
2022-12-29T07:59:50.137Z,5.80
2022-12-29T08:00:55.305Z,5.80
2022-12-29T08:02:00.863Z,5.80
2022-12-29T08:03:04.890Z,5.70
2022-12-29T08:04:07.927Z,5.80
2022-12-29T08:05:12.021Z,5.80
2022-12-29T08:06:14.660Z,5.80
2022-12-29T08:07:18.347Z,5.80
2022-12-29T08:08:22.144Z,5.80
2022-12-29T08:09:26.044Z,5.80
2022-12-29T08:10:28.618Z,5.90
2022-12-29T08:11:34.182Z,5.90
2022-12-29T08:12:37.041Z,5.90
2022-12-29T08:13:41.054Z,5.90
2022-12-29T08:14:44.503Z,6.00
2022-12-29T08:15:47.111Z,6.00
2022-12-29T08:16:51.503Z,6.00
2022-12-29T08:17:54.384Z,6.10
2022-12-29T08:18:58.537Z,6.20
2022-12-29T08:20:03.909Z,6.20
2022-12-29T08:21:08.059Z,6.20
2022-12-29T08:22:11.155Z,6.20
2022-12-29T08:23:14.899Z,6.20
2022-12-29T08:24:17.790Z,6.30
2022-12-29T08:25:21.854Z,6.30
2022-12-29T08:26:24.753Z,6.30
2022-12-29T08:27:29.845Z,6.20
2022-12-29T08:28:33.236Z,6.20
2022-12-29T08:29:37.249Z,6.30
2022-12-29T08:30:44.739Z,6.40
2022-12-29T08:31:48.443Z,6.50
2022-12-29T08:32:50.821Z,6.50
2022-12-29T08:33:57.454Z,6.50
2022-12-29T08:35:03.828Z,6.50
2022-12-29T08:36:08.851Z,6.60
2022-12-29T08:37:14.346Z,6.60
2022-12-29T08:38:16.926Z,6.60
2022-12-29T08:39:20.948Z,6.50
2022-12-29T08:40:25.684Z,6.60
2022-12-29T08:41:29.358Z,6.60
2022-12-29T08:42:34.883Z,6.70
2022-12-29T08:43:38.537Z,6.70
2022-12-29T08:44:44.462Z,6.70
2022-12-29T08:45:47.099Z,6.80
2022-12-29T08:46:50.883Z,6.80
2022-12-29T08:48:02.002Z,6.80
2022-12-29T08:49:06.396Z,6.80
2022-12-29T08:50:10.430Z,6.90
2022-12-29T08:51:22.795Z,6.90
2022-12-29T08:52:34.048Z,6.90
2022-12-29T08:53:36.787Z,6.90
2022-12-29T08:54:40.754Z,6.90
2022-12-29T08:55:43.835Z,7.00
2022-12-29T08:56:48.032Z,7.00
2022-12-29T08:57:54.774Z,7.00
2022-12-29T08:58:58.848Z,7.00
2022-12-29T09:00:09.759Z,7.00
2022-12-29T09:01:15.881Z,7.10
2022-12-29T09:02:24.566Z,7.20
2022-12-29T09:04:12.319Z,7.20
2022-12-29T09:04:52.427Z,7.30
2022-12-29T09:05:56.779Z,7.30
2022-12-29T09:07:01.277Z,7.30
2022-12-29T09:08:04.169Z,7.20
2022-12-29T09:09:11.445Z,7.30
2022-12-29T09:10:14.386Z,7.30
2022-12-29T09:11:22.932Z,7.30
2022-12-29T09:12:25.904Z,6.50
2022-12-29T09:13:31.529Z,7.40
2022-12-29T09:14:38.326Z,7.30
2022-12-29T09:15:41.951Z,7.40
2022-12-29T09:17:02.985Z,7.30
2022-12-29T09:18:09.842Z,7.40
2022-12-29T09:19:12.655Z,7.60
2022-12-29T09:20:18.991Z,7.50
2022-12-29T09:21:22.070Z,7.50
2022-12-29T09:22:25.626Z,7.50
2022-12-29T09:23:30.484Z,7.50
2022-12-29T09:24:36.099Z,7.60
2022-12-29T09:25:39.819Z,7.60
2022-12-29T09:26:46.961Z,7.50
2022-12-29T09:27:51.280Z,7.60
2022-12-29T09:28:55.513Z,7.70
2022-12-29T09:30:03.026Z,7.60
2022-12-29T09:31:06.306Z,7.30
2022-12-29T09:32:13.910Z,7.60
2022-12-29T09:33:21.049Z,7.60
2022-12-29T09:34:24.435Z,7.70
2022-12-29T09:35:28.677Z,7.60
2022-12-29T09:36:31.274Z,7.60
2022-12-29T09:37:35.454Z,7.60
2022-12-29T09:38:39.578Z,7.60
2022-12-29T09:39:52.166Z,7.60
2022-12-29T09:41:03.956Z,7.60
2022-12-29T09:42:14.408Z,7.60
2022-12-29T09:43:41.484Z,8.30
2022-12-29T09:45:02.383Z,7.70
2022-12-29T09:46:18.680Z,7.70
2022-12-29T09:47:26.106Z,7.60
2022-12-29T09:48:36.504Z,7.60
2022-12-29T09:49:51.003Z,7.60
2022-12-29T09:51:00.173Z,7.60
2022-12-29T09:52:12.528Z,7.70
2022-12-29T09:53:23.509Z,7.60
2022-12-29T09:54:53.868Z,7.70
2022-12-29T09:56:06.956Z,7.80
2022-12-29T09:57:20.484Z,7.70
2022-12-29T09:58:31.353Z,7.80
2022-12-29T09:59:46.588Z,7.80
2022-12-29T10:00:58.750Z,7.80
2022-12-29T10:02:17.516Z,7.80
2022-12-29T10:03:24.812Z,7.80
2022-12-29T10:04:29.663Z,7.80
2022-12-29T10:05:42.166Z,7.80
2022-12-29T10:08:35.008Z,7.80
2022-12-29T10:09:50.114Z,7.80
2022-12-29T10:10:59.327Z,7.80
2022-12-29T10:12:22.772Z,7.70
2022-12-29T10:13:42.092Z,7.70
2022-12-29T10:15:02.728Z,7.80
2022-12-29T10:16:17.922Z,7.80
2022-12-29T10:17:34.407Z,7.90
2022-12-29T10:19:07.080Z,7.90
2022-12-29T10:20:35.681Z,7.80
2022-12-29T10:21:59.302Z,7.90
2022-12-29T10:23:27.332Z,7.90
2022-12-29T10:24:33.371Z,7.90
2022-12-29T10:25:40.214Z,7.90
2022-12-29T10:26:47.334Z,7.90
2022-12-29T10:27:55.040Z,7.90
2022-12-29T10:29:04.676Z,8.00
2022-12-29T10:30:14.087Z,8.00
2022-12-29T10:31:24.372Z,7.90
2022-12-29T10:32:36.813Z,7.90
2022-12-29T10:33:43.697Z,7.90
2022-12-29T10:34:53.484Z,7.90
2022-12-29T10:35:57.222Z,7.90
2022-12-29T10:37:06.298Z,7.90
2022-12-29T10:38:21.903Z,7.90
2022-12-29T10:39:35.143Z,7.90
2022-12-29T10:40:45.920Z,7.90
2022-12-29T10:41:55.701Z,7.90
2022-12-29T10:43:01.158Z,7.90
2022-12-29T10:44:04.928Z,7.90
2022-12-29T10:45:14.264Z,8.00
2022-12-29T10:46:25.236Z,8.00
2022-12-29T10:47:35.572Z,8.00
2022-12-29T10:48:38.312Z,7.30
2022-12-29T10:49:44.928Z,8.00
2022-12-29T10:50:48.797Z,8.00
2022-12-29T10:51:56.654Z,8.00
2022-12-29T10:53:05.921Z,8.00
2022-12-29T10:54:18.087Z,8.00
2022-12-29T10:55:29.165Z,8.00
2022-12-29T10:56:38.217Z,8.00
2022-12-29T10:57:46.603Z,8.00
2022-12-29T10:58:53.940Z,8.00
2022-12-29T10:59:56.938Z,8.00
2022-12-29T11:01:03.045Z,8.00
2022-12-29T11:02:38.798Z,8.00
2022-12-29T11:04:03.024Z,8.00
2022-12-29T11:05:18.282Z,8.10
2022-12-29T11:06:28.661Z,8.00
2022-12-29T11:07:32.499Z,8.00
2022-12-29T11:08:43.442Z,8.00
2022-12-29T11:09:48.686Z,8.00
2022-12-29T11:11:02.493Z,8.00
2022-12-29T11:12:20.582Z,8.10
2022-12-29T11:13:32.236Z,8.10
2022-12-29T11:14:40.517Z,8.20
2022-12-29T11:15:46.005Z,8.20
2022-12-29T11:17:05.599Z,8.30
2022-12-29T11:18:22.004Z,8.30
2022-12-29T11:19:28.646Z,8.30
2022-12-29T11:20:38.757Z,8.40
2022-12-29T11:21:43.279Z,8.40
2022-12-29T11:22:48.475Z,8.40
2022-12-29T11:24:02.689Z,8.50
2022-12-29T11:25:18.597Z,8.50
2022-12-29T11:26:31.806Z,8.50
2022-12-29T11:27:37.798Z,8.50
2022-12-29T11:28:42.234Z,8.50
2022-12-29T11:29:47.424Z,8.50
2022-12-29T11:31:04.606Z,9.00
2022-12-29T11:32:16.637Z,8.50
2022-12-29T11:33:22.916Z,8.50
2022-12-29T11:34:28.174Z,8.40
2022-12-29T11:35:34.378Z,8.40
2022-12-29T11:36:40.616Z,9.10
2022-12-29T11:37:43.623Z,8.40
2022-12-29T11:38:52.365Z,8.50
2022-12-29T11:40:00.959Z,8.40
2022-12-29T11:41:05.847Z,8.40
2022-12-29T11:42:18.619Z,8.50
2022-12-29T11:43:30.469Z,8.50
2022-12-29T11:44:44.541Z,8.50
2022-12-29T11:45:48.952Z,8.60
2022-12-29T11:46:55.638Z,8.60
2022-12-29T11:48:02.559Z,8.60
2022-12-29T11:49:21.385Z,8.60
2022-12-29T11:50:30.423Z,8.70
2022-12-29T11:51:45.300Z,8.70
2022-12-29T11:52:58.916Z,8.70
2022-12-29T11:54:06.551Z,8.70
2022-12-29T11:55:23.143Z,9.00
2022-12-29T11:56:41.140Z,8.80
2022-12-29T11:57:47.041Z,8.70
2022-12-29T11:58:51.868Z,8.70
2022-12-29T11:59:58.987Z,8.70
2022-12-29T12:01:09.896Z,8.70
2022-12-29T12:02:49.919Z,8.80
2022-12-29T12:04:04.640Z,8.80
2022-12-29T12:05:23.737Z,8.80
2022-12-29T12:06:35.023Z,8.90
2022-12-29T12:07:43.896Z,8.90
2022-12-29T12:08:55.697Z,8.90
2022-12-29T12:10:07.987Z,8.90
2022-12-29T12:11:17.077Z,8.90
2022-12-29T12:12:29.771Z,8.90
2022-12-29T12:13:40.759Z,8.90
2022-12-29T12:14:54.645Z,9.00
2022-12-29T12:16:21.686Z,9.00
2022-12-29T12:17:38.447Z,9.00
2022-12-29T12:18:50.015Z,9.00
2022-12-29T12:20:03.390Z,8.90
2022-12-29T12:21:23.160Z,9.00
2022-12-29T12:22:33.425Z,9.10
2022-12-29T12:24:00.795Z,9.40
2022-12-29T12:25:13.765Z,9.40
2022-12-29T12:26:21.532Z,9.40
2022-12-29T12:27:30.322Z,9.30
2022-12-29T12:28:44.474Z,9.90
2022-12-29T12:29:58.899Z,9.30
2022-12-29T12:31:06.659Z,9.30
2022-12-29T12:32:19.769Z,9.30
2022-12-29T12:33:30.331Z,9.30
2022-12-29T12:34:46.361Z,9.20
2022-12-29T12:36:10.832Z,9.20
2022-12-29T12:37:46.370Z,9.20
2022-12-29T12:38:57.975Z,9.10
2022-12-29T12:40:37.387Z,9.10
2022-12-29T12:41:57.361Z,9.20
2022-12-29T12:43:19.500Z,9.30
2022-12-29T12:44:37.872Z,9.30
2022-12-29T12:45:54.094Z,9.30
2022-12-29T12:47:20.885Z,9.30
2022-12-29T12:49:11.296Z,9.30
2022-12-29T12:50:38.438Z,9.30
2022-12-29T12:52:09.779Z,9.30
2022-12-29T12:53:41.914Z,9.30
2022-12-29T12:55:10.393Z,9.60
2022-12-29T12:56:44.473Z,9.60
2022-12-29T12:58:01.947Z,9.00
2022-12-29T12:59:15.241Z,9.40
2022-12-29T13:00:24.487Z,9.40
2022-12-29T13:01:44.190Z,9.50
2022-12-29T13:03:05.937Z,9.50
2022-12-29T13:04:48.172Z,10.40
2022-12-29T13:06:15.913Z,9.50
2022-12-29T13:07:31.765Z,9.50
2022-12-29T13:09:00.029Z,9.50
2022-12-29T13:10:24.690Z,9.50
2022-12-29T13:11:46.421Z,9.60
2022-12-29T13:13:01.365Z,9.60
2022-12-29T13:14:22.511Z,9.60
2022-12-29T13:15:48.770Z,9.70
2022-12-29T13:17:04.644Z,9.70
2022-12-29T13:18:21.620Z,9.60
2022-12-29T13:19:36.755Z,9.70
2022-12-29T13:20:48.851Z,9.60
2022-12-29T13:22:07.256Z,9.70
2022-12-29T13:23:24.235Z,9.70
2022-12-29T13:24:39.385Z,9.70
2022-12-29T13:25:54.147Z,9.60
2022-12-29T13:27:05.883Z,9.60
2022-12-29T13:28:27.187Z,9.60
2022-12-29T13:29:37.873Z,9.60
2022-12-29T13:30:51.529Z,9.50
2022-12-29T13:32:11.046Z,9.40
2022-12-29T13:33:28.391Z,9.40
2022-12-29T13:34:44.639Z,9.40
2022-12-29T13:35:58.734Z,10.00
2022-12-29T13:37:06.819Z,9.40
2022-12-29T13:38:19.716Z,9.20
2022-12-29T13:39:34.886Z,9.40
2022-12-29T13:40:43.248Z,9.40
2022-12-29T13:41:53.508Z,9.30
2022-12-29T13:42:57.843Z,9.30
2022-12-29T13:44:06.217Z,9.30
2022-12-29T13:45:16.525Z,9.30
2022-12-29T13:46:26.958Z,9.40
2022-12-29T13:47:38.040Z,9.40
2022-12-29T13:48:48.795Z,9.30
2022-12-29T13:49:55.411Z,9.30
2022-12-29T13:51:03.292Z,9.00
2022-12-29T13:52:15.626Z,9.20
2022-12-29T13:53:31.706Z,9.10
2022-12-29T13:54:48.453Z,9.20
2022-12-29T13:55:56.465Z,9.30
2022-12-29T13:57:10.897Z,9.30
2022-12-29T13:58:25.578Z,9.30
2022-12-29T13:59:46.048Z,9.30
2022-12-29T14:00:57.943Z,9.30
2022-12-29T14:02:11.424Z,9.30
2022-12-29T14:03:44.386Z,9.30
2022-12-29T14:05:00.871Z,9.40
2022-12-29T14:06:17.734Z,9.30
2022-12-29T14:07:21.715Z,9.30
2022-12-29T14:08:24.539Z,9.30
2022-12-29T14:09:45.583Z,9.30
2022-12-29T14:10:51.509Z,9.30
2022-12-29T14:11:56.006Z,8.90
2022-12-29T14:13:06.606Z,9.30
2022-12-29T14:14:16.433Z,9.30
2022-12-29T14:15:25.707Z,9.30
2022-12-29T14:16:35.231Z,9.20
2022-12-29T14:17:39.521Z,9.30
2022-12-29T14:18:47.017Z,9.40
2022-12-29T14:19:55.108Z,9.40
2022-12-29T14:21:04.782Z,9.40
2022-12-29T14:22:07.937Z,9.40
2022-12-29T14:23:28.514Z,9.40
2022-12-29T14:24:51.701Z,9.50
2022-12-29T14:26:10.908Z,9.40
2022-12-29T14:27:46.791Z,9.40
2022-12-29T14:28:51.213Z,9.40
2022-12-29T14:29:54.098Z,9.40
2022-12-29T14:30:59.467Z,9.30
2022-12-29T14:32:02.540Z,9.30
2022-12-29T14:33:16.288Z,8.60
2022-12-29T14:34:40.605Z,9.70
2022-12-29T14:35:50.628Z,9.30
2022-12-29T14:36:58.831Z,9.30
2022-12-29T14:38:09.209Z,9.30
2022-12-29T14:39:38.690Z,10.40
2022-12-29T14:40:42.641Z,9.30
2022-12-29T14:41:49.511Z,9.70
2022-12-29T14:42:54.571Z,9.30
2022-12-29T14:44:06.112Z,9.70
2022-12-29T14:45:30.642Z,9.30
2022-12-29T14:46:51.325Z,9.30
2022-12-29T14:47:56.449Z,9.30
2022-12-29T14:49:02.646Z,9.50
2022-12-29T14:50:08.913Z,9.40
2022-12-29T14:51:31.393Z,9.40
2022-12-29T14:52:48.504Z,9.40
2022-12-29T14:53:52.670Z,9.50
2022-12-29T14:55:01.617Z,9.50
2022-12-29T14:56:05.892Z,9.60
2022-12-29T14:57:22.716Z,10.50
2022-12-29T14:58:31.958Z,9.60
2022-12-29T14:59:37.272Z,10.00
2022-12-29T15:00:43.876Z,9.60
2022-12-29T15:01:53.400Z,9.90
2022-12-29T15:03:07.999Z,10.50
2022-12-29T15:04:20.639Z,11.10
2022-12-29T15:05:47.393Z,11.30
2022-12-29T15:06:53.367Z,11.60
2022-12-29T15:08:00.534Z,11.80
2022-12-29T15:09:15.639Z,11.70
2022-12-29T15:10:21.425Z,11.70
2022-12-29T15:11:44.404Z,11.60
2022-12-29T15:12:55.331Z,11.50
2022-12-29T15:13:58.139Z,11.30
2022-12-29T15:15:03.460Z,11.10
2022-12-29T15:16:23.505Z,11.00
2022-12-29T15:17:30.219Z,10.80
2022-12-29T15:18:34.746Z,10.70
2022-12-29T15:19:38.980Z,10.60
2022-12-29T15:20:44.271Z,10.50
2022-12-29T15:21:49.084Z,10.50
2022-12-29T15:22:58.526Z,10.30
2022-12-29T15:24:02.831Z,10.30
2022-12-29T15:25:19.432Z,10.30
2022-12-29T15:26:38.285Z,10.20
2022-12-29T15:27:41.914Z,10.20
2022-12-29T15:28:49.012Z,10.10
2022-12-29T15:30:02.185Z,10.00
2022-12-29T15:31:08.533Z,8.90
2022-12-29T15:32:23.192Z,9.80
2022-12-29T15:33:29.885Z,9.80
2022-12-29T15:34:33.635Z,9.80